sensor_id;sensor_type;location;lat;lon;timestamp;P1;durP1;ratioP1;P2;durP2;ratioP2
22754;SDS011;11544;42.020;23.094;2023-05-29T00:02:12;4.78;;;2.15;;
22754;SDS011;11544;42.020;23.094;2023-05-29T00:04:39;4.75;;;2.35;;
22754;SDS011;11544;42.020;23.094;2023-05-29T00:07:06;4.88;;;2.20;;
22754;SDS011;11544;42.020;23.094;2023-05-29T00:09:33;2.50;;;2.00;;
22754;SDS011;11544;42.020;23.094;2023-05-29T00:12:01;5.18;;;2.20;;
22754;SDS011;11544;42.020;23.094;2023-05-29T00:14:28;6.28;;;2.42;;
22754;SDS011;11544;42.020;23.094;2023-05-29T00:16:56;4.05;;;2.25;;
22754;SDS011;11544;42.020;23.094;2023-05-29T00:19:23;3.80;;;1.90;;
22754;SDS011;11544;42.020;23.094;2023-05-29T00:21:51;3.10;;;2.10;;
22754;SDS011;11544;42.020;23.094;2023-05-29T00:24:18;2.80;;;2.00;;
22754;SDS011;11544;42.020;23.094;2023-05-29T00:26:46;3.20;;;2.03;;
22754;SDS011;11544;42.020;23.094;2023-05-29T00:29:13;3.25;;;2.15;;
22754;SDS011;11544;42.020;23.094;2023-05-29T00:31:41;3.72;;;2.08;;
22754;SDS011;11544;42.020;23.094;2023-05-29T00:34:08;3.92;;;2.50;;
22754;SDS011;11544;42.020;23.094;2023-05-29T00:36:35;4.10;;;2.97;;
22754;SDS011;11544;42.020;23.094;2023-05-29T00:39:02;5.25;;;2.22;;
22754;SDS011;11544;42.020;23.094;2023-05-29T00:41:29;2.83;;;1.75;;
22754;SDS011;11544;42.020;23.094;2023-05-29T00:43:56;4.88;;;2.15;;
22754;SDS011;11544;42.020;23.094;2023-05-29T00:46:23;2.47;;;2.00;;
22754;SDS011;11544;42.020;23.094;2023-05-29T00:48:50;3.63;;;2.13;;
22754;SDS011;11544;42.020;23.094;2023-05-29T00:51:17;3.10;;;2.28;;
22754;SDS011;11544;42.020;23.094;2023-05-29T00:53:44;3.80;;;2.10;;
22754;SDS011;11544;42.020;23.094;2023-05-29T00:56:12;4.70;;;1.92;;
22754;SDS011;11544;42.020;23.094;2023-05-29T00:58:39;5.03;;;2.17;;
22754;SDS011;11544;42.020;23.094;2023-05-29T01:01:08;3.45;;;2.10;;
22754;SDS011;11544;42.020;23.094;2023-05-29T01:03:40;3.85;;;2.10;;
22754;SDS011;11544;42.020;23.094;2023-05-29T01:06:08;3.30;;;2.38;;
22754;SDS011;11544;42.020;23.094;2023-05-29T01:08:36;4.15;;;2.47;;
22754;SDS011;11544;42.020;23.094;2023-05-29T01:11:18;2.85;;;2.10;;
22754;SDS011;11544;42.020;23.094;2023-05-29T01:13:53;4.43;;;2.33;;
22754;SDS011;11544;42.020;23.094;2023-05-29T01:16:35;4.03;;;2.20;;
22754;SDS011;11544;42.020;23.094;2023-05-29T01:25:11;3.75;;;2.28;;
22754;SDS011;11544;42.020;23.094;2023-05-29T01:27:51;3.58;;;1.88;;
22754;SDS011;11544;42.020;23.094;2023-05-29T01:30:20;2.78;;;2.40;;
22754;SDS011;11544;42.020;23.094;2023-05-29T01:32:50;3.45;;;2.58;;
22754;SDS011;11544;42.020;23.094;2023-05-29T01:35:18;2.92;;;2.10;;
22754;SDS011;11544;42.020;23.094;2023-05-29T01:37:46;6.00;;;2.58;;
22754;SDS011;11544;42.020;23.094;2023-05-29T01:40:15;4.40;;;2.53;;
22754;SDS011;11544;42.020;23.094;2023-05-29T01:42:42;3.72;;;2.20;;
22754;SDS011;11544;42.020;23.094;2023-05-29T01:45:10;5.07;;;2.38;;
22754;SDS011;11544;42.020;23.094;2023-05-29T01:47:39;2.60;;;1.92;;
22754;SDS011;11544;42.020;23.094;2023-05-29T01:50:07;2.50;;;2.03;;
22754;SDS011;11544;42.020;23.094;2023-05-29T01:52:35;3.70;;;2.45;;
22754;SDS011;11544;42.020;23.094;2023-05-29T01:55:03;3.55;;;2.17;;
22754;SDS011;11544;42.020;23.094;2023-05-29T01:57:30;4.20;;;2.38;;
22754;SDS011;11544;42.020;23.094;2023-05-29T01:59:57;3.25;;;2.40;;
22754;SDS011;11544;42.020;23.094;2023-05-29T02:02:25;3.22;;;2.10;;
22754;SDS011;11544;42.020;23.094;2023-05-29T02:04:52;3.75;;;2.45;;
22754;SDS011;11544;42.020;23.094;2023-05-29T02:07:22;7.72;;;2.50;;
22754;SDS011;11544;42.020;23.094;2023-05-29T02:09:49;2.97;;;2.10;;
22754;SDS011;11544;42.020;23.094;2023-05-29T02:12:19;4.05;;;2.30;;
22754;SDS011;11544;42.020;23.094;2023-05-29T02:14:45;2.30;;;2.08;;
22754;SDS011;11544;42.020;23.094;2023-05-29T02:17:13;4.22;;;2.65;;
22754;SDS011;11544;42.020;23.094;2023-05-29T02:19:41;4.28;;;2.60;;
22754;SDS011;11544;42.020;23.094;2023-05-29T02:22:08;3.15;;;2.47;;
22754;SDS011;11544;42.020;23.094;2023-05-29T02:24:35;4.13;;;2.63;;
22754;SDS011;11544;42.020;23.094;2023-05-29T02:27:04;2.75;;;2.28;;
22754;SDS011;11544;42.020;23.094;2023-05-29T02:29:31;4.57;;;2.03;;
22754;SDS011;11544;42.020;23.094;2023-05-29T02:31:58;3.80;;;2.35;;
22754;SDS011;11544;42.020;23.094;2023-05-29T02:34:25;6.07;;;2.25;;
22754;SDS011;11544;42.020;23.094;2023-05-29T02:36:53;3.70;;;2.35;;
22754;SDS011;11544;42.020;23.094;2023-05-29T02:39:21;4.13;;;2.50;;
22754;SDS011;11544;42.020;23.094;2023-05-29T02:41:47;4.57;;;3.13;;
22754;SDS011;11544;42.020;23.094;2023-05-29T02:44:14;6.65;;;2.72;;
22754;SDS011;11544;42.020;23.094;2023-05-29T02:46:41;3.15;;;2.40;;
22754;SDS011;11544;42.020;23.094;2023-05-29T02:49:08;6.03;;;2.65;;
22754;SDS011;11544;42.020;23.094;2023-05-29T02:51:35;3.80;;;2.28;;
22754;SDS011;11544;42.020;23.094;2023-05-29T02:54:03;7.80;;;2.83;;
22754;SDS011;11544;42.020;23.094;2023-05-29T02:56:31;3.42;;;2.35;;
22754;SDS011;11544;42.020;23.094;2023-05-29T02:58:58;4.80;;;2.30;;
22754;SDS011;11544;42.020;23.094;2023-05-29T03:01:26;4.10;;;2.30;;
22754;SDS011;11544;42.020;23.094;2023-05-29T03:03:53;4.70;;;2.65;;
22754;SDS011;11544;42.020;23.094;2023-05-29T03:06:22;3.20;;;2.15;;
22754;SDS011;11544;42.020;23.094;2023-05-29T03:08:49;4.40;;;2.63;;
22754;SDS011;11544;42.020;23.094;2023-05-29T03:11:17;3.92;;;2.47;;
22754;SDS011;11544;42.020;23.094;2023-05-29T03:13:44;3.47;;;2.40;;
22754;SDS011;11544;42.020;23.094;2023-05-29T03:16:15;3.40;;;2.28;;
22754;SDS011;11544;42.020;23.094;2023-05-29T03:18:43;6.78;;;2.33;;
22754;SDS011;11544;42.020;23.094;2023-05-29T03:21:10;4.18;;;2.63;;
22754;SDS011;11544;42.020;23.094;2023-05-29T03:23:37;5.05;;;2.47;;
22754;SDS011;11544;42.020;23.094;2023-05-29T03:26:04;6.35;;;2.72;;
22754;SDS011;11544;42.020;23.094;2023-05-29T03:28:33;3.90;;;2.55;;
22754;SDS011;11544;42.020;23.094;2023-05-29T03:31:04;7.50;;;2.30;;
22754;SDS011;11544;42.020;23.094;2023-05-29T03:33:37;3.92;;;2.33;;
22754;SDS011;11544;42.020;23.094;2023-05-29T03:36:04;3.70;;;2.45;;
22754;SDS011;11544;42.020;23.094;2023-05-29T03:38:31;3.15;;;2.13;;
22754;SDS011;11544;42.020;23.094;2023-05-29T03:40:58;3.55;;;2.28;;
22754;SDS011;11544;42.020;23.094;2023-05-29T03:43:27;5.05;;;2.20;;
22754;SDS011;11544;42.020;23.094;2023-05-29T03:45:54;3.20;;;2.22;;
22754;SDS011;11544;42.020;23.094;2023-05-29T03:48:21;7.13;;;2.70;;
22754;SDS011;11544;42.020;23.094;2023-05-29T03:50:48;5.85;;;2.25;;
22754;SDS011;11544;42.020;23.094;2023-05-29T03:53:16;3.67;;;2.28;;
22754;SDS011;11544;42.020;23.094;2023-05-29T03:55:44;4.90;;;2.38;;
22754;SDS011;11544;42.020;23.094;2023-05-29T03:58:11;4.50;;;2.40;;
22754;SDS011;11544;42.020;23.094;2023-05-29T04:00:39;7.10;;;2.67;;
22754;SDS011;11544;42.020;23.094;2023-05-29T04:03:07;4.78;;;1.80;;
22754;SDS011;11544;42.020;23.094;2023-05-29T04:05:35;3.83;;;2.33;;
22754;SDS011;11544;42.020;23.094;2023-05-29T04:08:05;3.40;;;2.17;;
22754;SDS011;11544;42.020;23.094;2023-05-29T04:10:41;5.13;;;1.80;;
22754;SDS011;11544;42.020;23.094;2023-05-29T04:13:10;4.95;;;2.35;;
22754;SDS011;11544;42.020;23.094;2023-05-29T04:15:36;6.07;;;2.45;;
22754;SDS011;11544;42.020;23.094;2023-05-29T04:18:04;2.92;;;2.35;;
22754;SDS011;11544;42.020;23.094;2023-05-29T04:20:33;6.90;;;2.40;;
22754;SDS011;11544;42.020;23.094;2023-05-29T04:23:02;8.68;;;2.50;;
22754;SDS011;11544;42.020;23.094;2023-05-29T04:25:40;7.00;;;3.50;;
22754;SDS011;11544;42.020;23.094;2023-05-29T04:28:07;8.55;;;4.18;;
22754;SDS011;11544;42.020;23.094;2023-05-29T04:30:33;5.05;;;3.42;;
22754;SDS011;11544;42.020;23.094;2023-05-29T04:33:02;6.90;;;2.92;;
22754;SDS011;11544;42.020;23.094;2023-05-29T04:35:29;4.97;;;3.40;;
22754;SDS011;11544;42.020;23.094;2023-05-29T04:37:56;5.93;;;3.67;;
22754;SDS011;11544;42.020;23.094;2023-05-29T04:40:24;8.30;;;3.83;;
22754;SDS011;11544;42.020;23.094;2023-05-29T04:42:54;10.45;;;4.60;;
22754;SDS011;11544;42.020;23.094;2023-05-29T05:12:48;8.52;;;4.00;;
22754;SDS011;11544;42.020;23.094;2023-05-29T05:15:15;7.53;;;4.20;;
22754;SDS011;11544;42.020;23.094;2023-05-29T05:17:45;9.13;;;4.25;;
22754;SDS011;11544;42.020;23.094;2023-05-29T05:20:13;6.20;;;4.68;;
22754;SDS011;11544;42.020;23.094;2023-05-29T05:22:42;8.75;;;4.82;;
22754;SDS011;11544;42.020;23.094;2023-05-29T05:25:21;7.72;;;4.93;;
22754;SDS011;11544;42.020;23.094;2023-05-29T05:27:49;7.72;;;4.68;;
22754;SDS011;11544;42.020;23.094;2023-05-29T05:30:19;7.70;;;4.78;;
22754;SDS011;11544;42.020;23.094;2023-05-29T05:32:52;7.30;;;4.47;;
22754;SDS011;11544;42.020;23.094;2023-05-29T05:35:26;7.68;;;4.80;;
22754;SDS011;11544;42.020;23.094;2023-05-29T05:37:53;5.18;;;4.30;;
22754;SDS011;11544;42.020;23.094;2023-05-29T05:40:27;11.88;;;4.65;;
22754;SDS011;11544;42.020;23.094;2023-05-29T05:42:54;8.50;;;4.65;;
22754;SDS011;11544;42.020;23.094;2023-05-29T05:45:22;7.72;;;4.38;;
22754;SDS011;11544;42.020;23.094;2023-05-29T05:47:52;6.57;;;4.20;;
22754;SDS011;11544;42.020;23.094;2023-05-29T05:50:20;7.07;;;4.35;;
22754;SDS011;11544;42.020;23.094;2023-05-29T05:52:49;7.85;;;4.60;;
22754;SDS011;11544;42.020;23.094;2023-05-29T05:55:19;7.82;;;4.10;;
22754;SDS011;11544;42.020;23.094;2023-05-29T05:57:52;11.27;;;4.45;;
22754;SDS011;11544;42.020;23.094;2023-05-29T06:00:22;12.10;;;4.85;;
22754;SDS011;11544;42.020;23.094;2023-05-29T06:03:03;6.88;;;4.22;;
22754;SDS011;11544;42.020;23.094;2023-05-29T06:05:33;10.20;;;5.35;;
22754;SDS011;11544;42.020;23.094;2023-05-29T06:08:04;7.05;;;4.00;;
22754;SDS011;11544;42.020;23.094;2023-05-29T06:10:39;14.20;;;4.55;;
22754;SDS011;11544;42.020;23.094;2023-05-29T06:13:17;7.63;;;4.40;;
22754;SDS011;11544;42.020;23.094;2023-05-29T06:15:45;6.72;;;4.60;;
22754;SDS011;11544;42.020;23.094;2023-05-29T06:18:18;12.50;;;4.97;;
22754;SDS011;11544;42.020;23.094;2023-05-29T06:20:51;10.80;;;5.35;;
22754;SDS011;11544;42.020;23.094;2023-05-29T06:23:28;10.02;;;5.18;;
22754;SDS011;11544;42.020;23.094;2023-05-29T06:26:08;13.05;;;7.32;;
22754;SDS011;11544;42.020;23.094;2023-05-29T06:28:38;10.50;;;6.95;;
22754;SDS011;11544;42.020;23.094;2023-05-29T06:31:06;8.63;;;6.20;;
22754;SDS011;11544;42.020;23.094;2023-05-29T06:33:38;11.27;;;5.88;;
22754;SDS011;11544;42.020;23.094;2023-05-29T06:36:26;6.60;;;5.05;;
22754;SDS011;11544;42.020;23.094;2023-05-29T06:39:02;11.60;;;5.68;;
22754;SDS011;11544;42.020;23.094;2023-05-29T06:41:33;7.43;;;4.63;;
22754;SDS011;11544;42.020;23.094;2023-05-29T06:44:02;8.27;;;4.45;;
22754;SDS011;11544;42.020;23.094;2023-05-29T06:46:29;8.30;;;4.53;;
22754;SDS011;11544;42.020;23.094;2023-05-29T06:49:04;7.63;;;3.92;;
22754;SDS011;11544;42.020;23.094;2023-05-29T06:51:40;9.73;;;4.22;;
22754;SDS011;11544;42.020;23.094;2023-05-29T06:54:08;7.40;;;4.18;;
22754;SDS011;11544;42.020;23.094;2023-05-29T06:56:36;15.73;;;4.95;;
22754;SDS011;11544;42.020;23.094;2023-05-29T06:59:03;7.93;;;3.58;;
22754;SDS011;11544;42.020;23.094;2023-05-29T07:01:30;8.23;;;3.60;;
22754;SDS011;11544;42.020;23.094;2023-05-29T07:04:11;8.43;;;3.88;;
22754;SDS011;11544;42.020;23.094;2023-05-29T07:06:46;7.70;;;3.60;;
22754;SDS011;11544;42.020;23.094;2023-05-29T07:09:13;6.10;;;4.15;;
22754;SDS011;11544;42.020;23.094;2023-05-29T07:11:42;5.32;;;3.85;;
22754;SDS011;11544;42.020;23.094;2023-05-29T07:14:13;8.45;;;3.95;;
22754;SDS011;11544;42.020;23.094;2023-05-29T07:16:40;8.73;;;4.15;;
22754;SDS011;11544;42.020;23.094;2023-05-29T07:19:10;7.20;;;3.67;;
22754;SDS011;11544;42.020;23.094;2023-05-29T07:21:47;7.43;;;4.15;;
22754;SDS011;11544;42.020;23.094;2023-05-29T07:24:15;7.15;;;3.63;;
22754;SDS011;11544;42.020;23.094;2023-05-29T07:26:42;6.95;;;3.58;;
22754;SDS011;11544;42.020;23.094;2023-05-29T07:29:09;7.63;;;3.85;;
22754;SDS011;11544;42.020;23.094;2023-05-29T07:31:38;6.93;;;3.60;;
22754;SDS011;11544;42.020;23.094;2023-05-29T07:34:09;9.05;;;4.30;;
22754;SDS011;11544;42.020;23.094;2023-05-29T07:36:37;7.20;;;4.05;;
22754;SDS011;11544;42.020;23.094;2023-05-29T07:39:28;7.53;;;3.67;;
22754;SDS011;11544;42.020;23.094;2023-05-29T07:41:56;11.35;;;3.65;;
22754;SDS011;11544;42.020;23.094;2023-05-29T07:44:23;8.07;;;4.35;;
22754;SDS011;11544;42.020;23.094;2023-05-29T07:46:55;9.35;;;3.97;;
22754;SDS011;11544;42.020;23.094;2023-05-29T07:49:22;7.90;;;4.18;;
22754;SDS011;11544;42.020;23.094;2023-05-29T07:51:55;8.30;;;4.10;;
22754;SDS011;11544;42.020;23.094;2023-05-29T07:54:25;5.85;;;3.28;;
22754;SDS011;11544;42.020;23.094;2023-05-29T07:56:55;6.45;;;3.65;;
22754;SDS011;11544;42.020;23.094;2023-05-29T07:59:27;5.53;;;3.45;;
22754;SDS011;11544;42.020;23.094;2023-05-29T08:01:55;12.18;;;5.05;;
22754;SDS011;11544;42.020;23.094;2023-05-29T08:04:25;7.07;;;4.18;;
22754;SDS011;11544;42.020;23.094;2023-05-29T08:06:52;4.28;;;3.20;;
22754;SDS011;11544;42.020;23.094;2023-05-29T08:09:19;7.88;;;3.38;;
22754;SDS011;11544;42.020;23.094;2023-05-29T08:11:47;11.07;;;3.45;;
22754;SDS011;11544;42.020;23.094;2023-05-29T08:14:14;4.30;;;3.10;;
22754;SDS011;11544;42.020;23.094;2023-05-29T08:16:44;5.70;;;3.20;;
22754;SDS011;11544;42.020;23.094;2023-05-29T08:19:13;9.55;;;3.42;;
22754;SDS011;11544;42.020;23.094;2023-05-29T08:21:40;5.28;;;3.40;;
22754;SDS011;11544;42.020;23.094;2023-05-29T08:24:08;5.43;;;3.17;;
22754;SDS011;11544;42.020;23.094;2023-05-29T08:26:37;6.53;;;3.50;;
22754;SDS011;11544;42.020;23.094;2023-05-29T08:29:05;9.25;;;2.90;;
22754;SDS011;11544;42.020;23.094;2023-05-29T08:31:33;6.82;;;2.85;;
22754;SDS011;11544;42.020;23.094;2023-05-29T08:34:03;5.10;;;2.90;;
22754;SDS011;11544;42.020;23.094;2023-05-29T08:36:30;4.93;;;3.00;;
22754;SDS011;11544;42.020;23.094;2023-05-29T08:38:58;6.53;;;3.05;;
22754;SDS011;11544;42.020;23.094;2023-05-29T08:41:33;5.10;;;3.33;;
22754;SDS011;11544;42.020;23.094;2023-05-29T08:44:15;7.75;;;3.08;;
22754;SDS011;11544;42.020;23.094;2023-05-29T08:46:52;4.28;;;2.90;;
22754;SDS011;11544;42.020;23.094;2023-05-29T08:49:23;9.05;;;2.78;;
22754;SDS011;11544;42.020;23.094;2023-05-29T08:54:44;4.25;;;2.75;;
22754;SDS011;11544;42.020;23.094;2023-05-29T08:57:16;4.30;;;2.78;;
22754;SDS011;11544;42.020;23.094;2023-05-29T08:59:46;7.38;;;2.83;;
22754;SDS011;11544;42.020;23.094;2023-05-29T09:02:18;4.38;;;3.00;;
22754;SDS011;11544;42.020;23.094;2023-05-29T09:04:50;7.70;;;3.05;;
22754;SDS011;11544;42.020;23.094;2023-05-29T09:07:21;6.28;;;2.90;;
22754;SDS011;11544;42.020;23.094;2023-05-29T09:09:50;5.13;;;3.13;;
22754;SDS011;11544;42.020;23.094;2023-05-29T09:12:19;4.13;;;3.13;;
22754;SDS011;11544;42.020;23.094;2023-05-29T09:14:48;6.40;;;3.20;;
22754;SDS011;11544;42.020;23.094;2023-05-29T09:17:19;5.43;;;2.78;;
22754;SDS011;11544;42.020;23.094;2023-05-29T09:19:47;3.25;;;2.95;;
22754;SDS011;11544;42.020;23.094;2023-05-29T09:22:17;8.43;;;2.92;;
22754;SDS011;11544;42.020;23.094;2023-05-29T09:25:06;4.85;;;2.65;;
22754;SDS011;11544;42.020;23.094;2023-05-29T09:27:38;6.28;;;2.97;;
22754;SDS011;11544;42.020;23.094;2023-05-29T09:30:06;3.20;;;2.50;;
22754;SDS011;11544;42.020;23.094;2023-05-29T09:32:36;4.28;;;2.97;;
22754;SDS011;11544;42.020;23.094;2023-05-29T09:35:04;7.57;;;3.10;;
22754;SDS011;11544;42.020;23.094;2023-05-29T09:37:31;3.85;;;2.78;;
22754;SDS011;11544;42.020;23.094;2023-05-29T09:43:28;6.32;;;2.60;;
22754;SDS011;11544;42.020;23.094;2023-05-29T09:45:58;3.05;;;2.72;;
22754;SDS011;11544;42.020;23.094;2023-05-29T09:48:30;3.75;;;2.67;;
22754;SDS011;11544;42.020;23.094;2023-05-29T09:50:58;3.72;;;3.10;;
22754;SDS011;11544;42.020;23.094;2023-05-29T09:53:29;4.65;;;2.80;;
22754;SDS011;11544;42.020;23.094;2023-05-29T09:55:57;5.68;;;3.25;;
22754;SDS011;11544;42.020;23.094;2023-05-29T09:58:31;5.82;;;3.90;;
22754;SDS011;11544;42.020;23.094;2023-05-29T10:00:59;7.95;;;3.75;;
22754;SDS011;11544;42.020;23.094;2023-05-29T10:03:29;4.93;;;2.83;;
22754;SDS011;11544;42.020;23.094;2023-05-29T10:06:01;4.07;;;3.10;;
22754;SDS011;11544;42.020;23.094;2023-05-29T10:08:51;3.55;;;2.67;;
22754;SDS011;11544;42.020;23.094;2023-05-29T10:11:21;5.63;;;2.28;;
22754;SDS011;11544;42.020;23.094;2023-05-29T10:13:52;5.88;;;2.65;;
22754;SDS011;11544;42.020;23.094;2023-05-29T10:16:24;4.03;;;2.47;;
22754;SDS011;11544;42.020;23.094;2023-05-29T10:18:53;5.88;;;2.85;;
22754;SDS011;11544;42.020;23.094;2023-05-29T10:21:21;3.85;;;1.80;;
22754;SDS011;11544;42.020;23.094;2023-05-29T10:23:54;4.00;;;2.00;;
22754;SDS011;11544;42.020;23.094;2023-05-29T10:26:25;3.40;;;2.55;;
22754;SDS011;11544;42.020;23.094;2023-05-29T10:29:00;5.28;;;2.70;;
22754;SDS011;11544;42.020;23.094;2023-05-29T10:31:43;4.75;;;2.60;;
22754;SDS011;11544;42.020;23.094;2023-05-29T10:34:42;2.95;;;2.28;;
22754;SDS011;11544;42.020;23.094;2023-05-29T10:37:32;3.85;;;2.42;;
22754;SDS011;11544;42.020;23.094;2023-05-29T10:40:09;4.13;;;2.05;;
22754;SDS011;11544;42.020;23.094;2023-05-29T10:42:40;2.80;;;2.28;;
22754;SDS011;11544;42.020;23.094;2023-05-29T10:47:56;4.95;;;2.70;;
22754;SDS011;11544;42.020;23.094;2023-05-29T10:50:45;4.00;;;2.70;;
22754;SDS011;11544;42.020;23.094;2023-05-29T10:53:15;3.83;;;2.60;;
22754;SDS011;11544;42.020;23.094;2023-05-29T10:55:44;4.13;;;2.28;;
22754;SDS011;11544;42.020;23.094;2023-05-29T10:58:12;2.83;;;2.05;;
22754;SDS011;11544;42.020;23.094;2023-05-29T11:00:42;4.38;;;2.30;;
22754;SDS011;11544;42.020;23.094;2023-05-29T11:03:15;6.80;;;2.53;;
22754;SDS011;11544;42.020;23.094;2023-05-29T11:06:03;6.13;;;3.03;;
22754;SDS011;11544;42.020;23.094;2023-05-29T11:11:14;3.53;;;2.50;;
22754;SDS011;11544;42.020;23.094;2023-05-29T11:16:37;3.40;;;2.17;;
22754;SDS011;11544;42.020;23.094;2023-05-29T11:19:27;4.43;;;2.45;;
22754;SDS011;11544;42.020;23.094;2023-05-29T11:22:06;2.95;;;2.30;;
22754;SDS011;11544;42.020;23.094;2023-05-29T11:24:39;5.00;;;2.47;;
22754;SDS011;11544;42.020;23.094;2023-05-29T11:27:07;4.55;;;2.10;;
22754;SDS011;11544;42.020;23.094;2023-05-29T11:29:34;3.63;;;2.38;;
22754;SDS011;11544;42.020;23.094;2023-05-29T11:32:05;2.72;;;2.05;;
22754;SDS011;11544;42.020;23.094;2023-05-29T11:34:35;4.57;;;2.10;;
22754;SDS011;11544;42.020;23.094;2023-05-29T11:37:10;3.28;;;2.38;;
22754;SDS011;11544;42.020;23.094;2023-05-29T11:39:41;4.25;;;2.22;;
22754;SDS011;11544;42.020;23.094;2023-05-29T11:42:08;3.67;;;2.05;;
22754;SDS011;11544;42.020;23.094;2023-05-29T11:44:38;4.90;;;2.10;;
22754;SDS011;11544;42.020;23.094;2023-05-29T11:47:06;4.35;;;2.33;;
22754;SDS011;11544;42.020;23.094;2023-05-29T11:49:39;2.80;;;1.80;;
22754;SDS011;11544;42.020;23.094;2023-05-29T11:52:10;5.07;;;2.10;;
22754;SDS011;11544;42.020;23.094;2023-05-29T11:54:41;2.03;;;1.80;;
22754;SDS011;11544;42.020;23.094;2023-05-29T11:57:21;3.70;;;1.90;;
22754;SDS011;11544;42.020;23.094;2023-05-29T11:59:58;3.03;;;1.73;;
22754;SDS011;11544;42.020;23.094;2023-05-29T12:02:29;1.77;;;1.65;;
22754;SDS011;11544;42.020;23.094;2023-05-29T12:05:04;2.55;;;2.00;;
22754;SDS011;11544;42.020;23.094;2023-05-29T12:07:33;5.10;;;1.88;;
22754;SDS011;11544;42.020;23.094;2023-05-29T12:10:14;2.75;;;1.65;;
22754;SDS011;11544;42.020;23.094;2023-05-29T12:12:50;3.08;;;1.73;;
22754;SDS011;11544;42.020;23.094;2023-05-29T12:15:19;3.10;;;1.50;;
22754;SDS011;11544;42.020;23.094;2023-05-29T12:17:51;1.88;;;1.67;;
22754;SDS011;11544;42.020;23.094;2023-05-29T12:20:39;3.85;;;1.67;;
22754;SDS011;11544;42.020;23.094;2023-05-29T12:23:06;5.10;;;1.27;;
22754;SDS011;11544;42.020;23.094;2023-05-29T12:25:40;3.03;;;1.48;;
22754;SDS011;11544;42.020;23.094;2023-05-29T12:28:15;3.13;;;1.60;;
22754;SDS011;11544;42.020;23.094;2023-05-29T12:30:57;2.65;;;1.40;;
22754;SDS011;11544;42.020;23.094;2023-05-29T12:33:29;2.10;;;1.30;;
22754;SDS011;11544;42.020;23.094;2023-05-29T12:38:55;1.67;;;1.10;;
22754;SDS011;11544;42.020;23.094;2023-05-29T12:41:28;1.75;;;1.30;;
22754;SDS011;11544;42.020;23.094;2023-05-29T12:44:00;1.45;;;1.30;;
22754;SDS011;11544;42.020;23.094;2023-05-29T12:46:34;4.45;;;1.60;;
22754;SDS011;11544;42.020;23.094;2023-05-29T12:49:12;3.55;;;1.85;;
22754;SDS011;11544;42.020;23.094;2023-05-29T12:51:47;4.88;;;1.95;;
22754;SDS011;11544;42.020;23.094;2023-05-29T12:54:22;3.30;;;1.80;;
22754;SDS011;11544;42.020;23.094;2023-05-29T12:56:52;2.30;;;1.70;;
22754;SDS011;11544;42.020;23.094;2023-05-29T12:59:23;3.25;;;1.45;;
22754;SDS011;11544;42.020;23.094;2023-05-29T13:01:52;3.03;;;1.83;;
22754;SDS011;11544;42.020;23.094;2023-05-29T13:04:19;4.28;;;1.80;;
22754;SDS011;11544;42.020;23.094;2023-05-29T13:06:46;2.65;;;2.05;;
22754;SDS011;11544;42.020;23.094;2023-05-29T13:09:13;2.42;;;1.60;;
22754;SDS011;11544;42.020;23.094;2023-05-29T13:11:40;3.90;;;1.75;;
22754;SDS011;11544;42.020;23.094;2023-05-29T13:14:07;2.30;;;1.90;;
22754;SDS011;11544;42.020;23.094;2023-05-29T13:16:35;2.35;;;1.90;;
22754;SDS011;11544;42.020;23.094;2023-05-29T13:19:02;3.72;;;1.85;;
22754;SDS011;11544;42.020;23.094;2023-05-29T13:21:29;1.67;;;1.40;;
22754;SDS011;11544;42.020;23.094;2023-05-29T13:23:56;3.97;;;1.88;;
22754;SDS011;11544;42.020;23.094;2023-05-29T13:26:23;2.55;;;1.65;;
22754;SDS011;11544;42.020;23.094;2023-05-29T13:28:52;3.88;;;1.45;;
22754;SDS011;11544;42.020;23.094;2023-05-29T13:31:19;3.58;;;1.75;;
22754;SDS011;11544;42.020;23.094;2023-05-29T13:33:50;3.05;;;1.85;;
22754;SDS011;11544;42.020;23.094;2023-05-29T13:36:17;2.47;;;1.67;;
22754;SDS011;11544;42.020;23.094;2023-05-29T13:38:44;3.50;;;1.77;;
22754;SDS011;11544;42.020;23.094;2023-05-29T13:41:16;2.90;;;1.50;;
22754;SDS011;11544;42.020;23.094;2023-05-29T13:43:46;2.50;;;1.20;;
22754;SDS011;11544;42.020;23.094;2023-05-29T13:46:13;4.40;;;1.77;;
22754;SDS011;11544;42.020;23.094;2023-05-29T13:48:41;2.05;;;1.35;;
22754;SDS011;11544;42.020;23.094;2023-05-29T13:51:08;2.83;;;1.88;;
22754;SDS011;11544;42.020;23.094;2023-05-29T13:53:37;2.88;;;1.63;;
22754;SDS011;11544;42.020;23.094;2023-05-29T13:56:04;5.53;;;1.52;;
22754;SDS011;11544;42.020;23.094;2023-05-29T13:58:33;2.35;;;1.60;;
22754;SDS011;11544;42.020;23.094;2023-05-29T14:01:03;3.65;;;1.70;;
22754;SDS011;11544;42.020;23.094;2023-05-29T14:03:30;3.45;;;1.88;;
22754;SDS011;11544;42.020;23.094;2023-05-29T14:06:02;2.67;;;1.40;;
22754;SDS011;11544;42.020;23.094;2023-05-29T14:08:32;3.83;;;1.70;;
22754;SDS011;11544;42.020;23.094;2023-05-29T14:10:59;2.42;;;1.40;;
22754;SDS011;11544;42.020;23.094;2023-05-29T14:13:29;5.90;;;1.60;;
22754;SDS011;11544;42.020;23.094;2023-05-29T14:15:58;1.95;;;1.35;;
22754;SDS011;11544;42.020;23.094;2023-05-29T14:18:29;5.40;;;1.42;;
22754;SDS011;11544;42.020;23.094;2023-05-29T14:21:00;1.85;;;1.15;;
22754;SDS011;11544;42.020;23.094;2023-05-29T14:23:36;1.60;;;1.23;;
22754;SDS011;11544;42.020;23.094;2023-05-29T14:26:03;1.92;;;1.73;;
22754;SDS011;11544;42.020;23.094;2023-05-29T14:28:31;2.50;;;1.73;;
22754;SDS011;11544;42.020;23.094;2023-05-29T14:30:58;2.50;;;1.70;;
22754;SDS011;11544;42.020;23.094;2023-05-29T14:33:25;8.80;;;1.73;;
22754;SDS011;11544;42.020;23.094;2023-05-29T14:35:52;2.42;;;1.55;;
22754;SDS011;11544;42.020;23.094;2023-05-29T14:38:20;3.25;;;1.63;;
22754;SDS011;11544;42.020;23.094;2023-05-29T14:40:47;2.90;;;1.70;;
22754;SDS011;11544;42.020;23.094;2023-05-29T14:43:33;2.10;;;1.30;;
22754;SDS011;11544;42.020;23.094;2023-05-29T14:46:04;2.70;;;1.30;;
22754;SDS011;11544;42.020;23.094;2023-05-29T14:48:31;2.17;;;1.50;;
22754;SDS011;11544;42.020;23.094;2023-05-29T14:50:58;2.28;;;1.60;;
22754;SDS011;11544;42.020;23.094;2023-05-29T14:53:28;3.15;;;1.45;;
22754;SDS011;11544;42.020;23.094;2023-05-29T14:56:06;2.08;;;1.45;;
22754;SDS011;11544;42.020;23.094;2023-05-29T14:59:02;2.08;;;1.50;;
22754;SDS011;11544;42.020;23.094;2023-05-29T15:01:32;2.78;;;1.42;;
22754;SDS011;11544;42.020;23.094;2023-05-29T15:04:02;3.47;;;1.50;;
22754;SDS011;11544;42.020;23.094;2023-05-29T15:06:34;3.40;;;1.75;;
22754;SDS011;11544;42.020;23.094;2023-05-29T15:09:04;3.00;;;1.80;;
22754;SDS011;11544;42.020;23.094;2023-05-29T15:14:26;4.22;;;1.80;;
22754;SDS011;11544;42.020;23.094;2023-05-29T15:16:56;2.38;;;1.65;;
22754;SDS011;11544;42.020;23.094;2023-05-29T15:19:24;2.35;;;1.27;;
22754;SDS011;11544;42.020;23.094;2023-05-29T15:21:51;2.08;;;1.30;;
22754;SDS011;11544;42.020;23.094;2023-05-29T15:24:19;2.80;;;1.40;;
22754;SDS011;11544;42.020;23.094;2023-05-29T15:26:48;4.40;;;3.00;;
22754;SDS011;11544;42.020;23.094;2023-05-29T15:29:16;3.03;;;1.75;;
22754;SDS011;11544;42.020;23.094;2023-05-29T15:32:02;3.63;;;1.80;;
22754;SDS011;11544;42.020;23.094;2023-05-29T15:34:30;5.32;;;2.13;;
22754;SDS011;11544;42.020;23.094;2023-05-29T15:36:57;4.63;;;2.30;;
22754;SDS011;11544;42.020;23.094;2023-05-29T16:00:58;4.85;;;2.30;;
22754;SDS011;11544;42.020;23.094;2023-05-29T16:03:50;6.97;;;2.90;;
22754;SDS011;11544;42.020;23.094;2023-05-29T18:26:48;5.00;;;2.22;;
22754;SDS011;11544;42.020;23.094;2023-05-29T18:30:08;7.13;;;2.70;;